Pagrindinis puslapis
METAR-TAF:

METAR-TAF

Oro uostai :

Belgradas, Serbija

platuma: 44-49N, ilguma: 020-17E, Aukštis: 96 m

Dabartinis oras

Ataskaita buvo paskelbta 37 minutes, ne 15:00 UTC
Vėjas 6 kt iš Šiaurės Rytų, svyruoja nuo Šiaurės ir Rytų
Temperatūra 29°C
Drėgmė 35%
Slėgis 1018 hPa
Matomumas 10 km arba daugiau
nėra debesų žemiau 1500 m ir nėra kamuolinių lietaus debesų

METAR: LYBE 091500Z 04006KT 360V080 CAVOK 29/12 Q1018 NOSIG

Laikas: 17:37 (15:37 UTC)

Prognozė

Ataskaita buvo paskelbta 4 valandos ir 37 minutes, ne 11:00 UTC
Prognozė galioja nuo 09 metu 12 UTC su 10 metu 12 UTC
Vėjas 8 kt iš Rytų/Šiaurės Rytų
Matomumas 10 km arba daugiau
nėra debesų žemiau 1500 m ir nėra kamuolinių lietaus debesų
Tapsmas
nuo 10 metu 08 UTC su 10 metu 10 UTC
Vėjas 12 kt iš Pietryčių

TAF: LYBE 091100Z 0912/1012 07008KT CAVOK TX32/1012Z TN17/1003Z BECMG 1008/1010 13012KT

Orai ataskaitas ir orų prognozės (METAR, TAF).

turimą stotys yra geltonos ir raudonos taškus žemėlapyje.

Perkelti pele per norėdami pamatyti stoties vardą.

Tada spustelėkite, norėdami matyti oro stebėjimo ir prognozės.

Norėdami pakeisti žemėlapį: spustelėkite ant žalios mygtukų su juodo kryžiaus žemyn,; žalią mygtuką su brūkšneliu, jei norite nutolinti; arba žalių rodyklių gretimoms žemėlapius.


METAR-TAF: